Observation data for Haskell on 08/15/2019      Previous  Date  Next       Current Mesonet Observations  Soil Data  Daily Summary Page  Observations in Plain Language
KHA1 150500Z 09006KT 28/19 A3007 RMK A01 T02820190  RH  061%=      5-min Rain = 0
KHA1 150505Z 09006KT 28/19 A3008 RMK A01 T02810190  RH  061%=      5-min Rain = 0
KHA1 150510Z 10006G11KT 28/19 A3008 RMK A01 T02800190  RH  062%=      5-min Rain = 0
KHA1 150515Z 09006KT 28/19 A3008 RMK A01 T02770190  RH  062%=      5-min Rain = 0
KHA1 150520Z 09007KT 28/19 A3008 RMK A01 T02760190  RH  063%=      5-min Rain = 0
KHA1 150525Z 09007G12KT 28/19 A3008 RMK A01 T02750190  RH  063%=      5-min Rain = 0
KHA1 150530Z 09007KT 28/19 A3008 RMK A01 T02750189  RH  063%=      5-min Rain = 0
KHA1 150535Z 09006KT 27/19 A3008 RMK A01 T02740189  RH  063%=      5-min Rain = 0
KHA1 150540Z 09005KT 27/19 A3008 RMK A01 T02720189  RH  064%=      5-min Rain = 0
KHA1 150545Z 09005KT 27/19 A3008 RMK A01 T02710189  RH  064%=      5-min Rain = 0
KHA1 150550Z 09006KT 27/19 A3008 RMK A01 T02700189  RH  065%=      5-min Rain = 0
KHA1 150555Z 09006KT 27/19 A3008 RMK A01 T02690189  RH  065%=      5-min Rain = 0
KHA1 150600Z 09005KT 27/19 A3008 RMK A01 T02690189  RH  065%=      5-min Rain = 0
KHA1 150605Z 09005KT 27/19 A3008 RMK A01 T02670189  RH  066%=      5-min Rain = 0
KHA1 150610Z 10004KT 27/19 A3008 RMK A01 T02670189  RH  066%=      5-min Rain = 0
KHA1 150615Z 10003KT 27/19 A3009 RMK A01 T02660190  RH  066%=      5-min Rain = 0
KHA1 150620Z 09003KT 27/19 A3008 RMK A01 T02660190  RH  067%=      5-min Rain = 0
KHA1 150625Z 09003KT 27/19 A3008 RMK A01 T02650190  RH  067%=      5-min Rain = 0
KHA1 150630Z 10003KT 26/19 A3008 RMK A01 T02640190  RH  067%=      5-min Rain = 0
KHA1 150635Z 10003KT 26/19 A3008 RMK A01 T02630190  RH  068%=      5-min Rain = 0
KHA1 150640Z 10003KT 26/19 A3008 RMK A01 T02630190  RH  068%=      5-min Rain = 0
KHA1 150645Z 10003KT 26/19 A3008 RMK A01 T02640190  RH  068%=      5-min Rain = 0
KHA1 150650Z 11003KT 26/19 A3008 RMK A01 T02630190  RH  068%=      5-min Rain = 0
KHA1 150655Z 10002KT 26/19 A3008 RMK A01 T02620191  RH  068%=      5-min Rain = 0
KHA1 150700Z 11002KT 26/19 A3008 RMK A01 T02620191  RH  069%=      5-min Rain = 0
KHA1 150705Z 10003KT 26/19 A3008 RMK A01 T02610190  RH  069%=      5-min Rain = 0
KHA1 150710Z 10002KT 26/19 A3008 RMK A01 T02600190  RH  069%=      5-min Rain = 0
KHA1 150715Z 10003KT 26/19 A3007 RMK A01 T02590190  RH  070%=      5-min Rain = 0
KHA1 150720Z 11003KT 26/19 A3007 RMK A01 T02590191  RH  070%=      5-min Rain = 0
KHA1 150725Z 12004KT 26/19 A3007 RMK A01 T02580191  RH  070%=      5-min Rain = 0
KHA1 150730Z 11003KT 26/19 A3007 RMK A01 T02590191  RH  070%=      5-min Rain = 0
KHA1 150735Z 12002KT 26/19 A3007 RMK A01 T02570191  RH  071%=      5-min Rain = 0
KHA1 150740Z 12003KT 26/19 A3006 RMK A01 T02570192  RH  071%=      5-min Rain = 0
KHA1 150745Z 12003KT 26/19 A3006 RMK A01 T02570192  RH  071%=      5-min Rain = 0
KHA1 150750Z 12003KT 26/19 A3006 RMK A01 T02560192  RH  071%=      5-min Rain = 0
KHA1 150755Z 12004KT 26/19 A3006 RMK A01 T02570193  RH  071%=      5-min Rain = 0
KHA1 150800Z 13002KT 26/19 A3006 RMK A01 T02570193  RH  072%=      5-min Rain = 0
KHA1 150805Z 11002KT 26/19 A3006 RMK A01 T02560193  RH  072%=      5-min Rain = 0
KHA1 150810Z 11002KT 26/19 A3006 RMK A01 T02550193  RH  072%=      5-min Rain = 0
KHA1 150815Z 11003KT 26/19 A3006 RMK A01 T02550193  RH  073%=      5-min Rain = 0
KHA1 150820Z 11003KT 25/19 A3006 RMK A01 T02540193  RH  073%=      5-min Rain = 0
KHA1 150825Z 12002KT 25/19 A3006 RMK A01 T02530192  RH  073%=      5-min Rain = 0
KHA1 150830Z 12003KT 25/19 A3006 RMK A01 T02520193  RH  074%=      5-min Rain = 0
KHA1 150835Z 13004KT 25/19 A3006 RMK A01 T02510194  RH  074%=      5-min Rain = 0
KHA1 150840Z 12004KT 25/19 A3005 RMK A01 T02510194  RH  075%=      5-min Rain = 0
KHA1 150845Z 11004KT 25/19 A3005 RMK A01 T02520194  RH  074%=      5-min Rain = 0
KHA1 150850Z 11004KT 25/19 A3005 RMK A01 T02530194  RH  074%=      5-min Rain = 0
KHA1 150855Z 12004KT 25/19 A3005 RMK A01 T02520194  RH  074%=      5-min Rain = 0
KHA1 150900Z 12003KT 25/19 A3005 RMK A01 T02520194  RH  075%=      5-min Rain = 0
KHA1 150905Z 12004KT 25/20 A3005 RMK A01 T02510195  RH  075%=      5-min Rain = 0
KHA1 150910Z 12004KT 25/20 A3005 RMK A01 T02500195  RH  075%=      5-min Rain = 0
KHA1 150915Z 12004KT 25/20 A3005 RMK A01 T02510196  RH  075%=      5-min Rain = 0
KHA1 150920Z 12004KT 25/20 A3005 RMK A01 T02520196  RH  075%=      5-min Rain = 0
KHA1 150925Z 13004KT 25/20 A3005 RMK A01 T02510196  RH  076%=      5-min Rain = 0
KHA1 150930Z 13004KT 25/20 A3005 RMK A01 T02510197  RH  076%=      5-min Rain = 0
KHA1 150935Z 14004KT 25/20 A3005 RMK A01 T02520198  RH  076%=      5-min Rain = 0
KHA1 150940Z 13004KT 25/20 A3005 RMK A01 T02520198  RH  076%=      5-min Rain = 0
KHA1 150945Z 13004KT 25/20 A3005 RMK A01 T02520199  RH  076%=      5-min Rain = 0
KHA1 150950Z 12003KT 25/20 A3005 RMK A01 T02520198  RH  076%=      5-min Rain = 0
KHA1 150955Z 13004KT 25/20 A3005 RMK A01 T02510198  RH  077%=      5-min Rain = 0
KHA1 151000Z 13004KT 25/20 A3005 RMK A01 T02500199  RH  077%=      5-min Rain = 0
KHA1 151005Z 12004KT 25/20 A3005 RMK A01 T02490199  RH  078%=      5-min Rain = 0
KHA1 151010Z 13003KT 25/20 A3004 RMK A01 T02490199  RH  078%=      5-min Rain = 0
KHA1 151015Z 14003KT 25/20 A3004 RMK A01 T02480200  RH  079%=      5-min Rain = 0
KHA1 151020Z 14003KT 25/20 A3004 RMK A01 T02490200  RH  079%=      5-min Rain = 0
KHA1 151025Z 15003KT 25/20 A3004 RMK A01 T02480200  RH  079%=      5-min Rain = 0
KHA1 151030Z 14003KT 25/20 A3004 RMK A01 T02480200  RH  079%=      5-min Rain = 0
KHA1 151035Z 14003KT 25/20 A3004 RMK A01 T02490200  RH  079%=      5-min Rain = 0
KHA1 151040Z 14002KT 25/20 A3004 RMK A01 T02480200  RH  079%=      5-min Rain = 0
KHA1 151045Z 12001KT 25/20 A3004 RMK A01 T02470200  RH  079%=      5-min Rain = 0
KHA1 151050Z 13001KT 25/20 A3004 RMK A01 T02460199  RH  080%=      5-min Rain = 0
KHA1 151055Z 15001KT 25/20 A3004 RMK A01 T02460199  RH  080%=      5-min Rain = 0
KHA1 151100Z 14002KT 24/20 A3004 RMK A01 T02430200  RH  081%=      5-min Rain = 0
KHA1 151105Z 15003KT 24/20 A3004 RMK A01 T02440199  RH  081%=      5-min Rain = 0
KHA1 151110Z 15002KT 25/20 A3004 RMK A01 T02450199  RH  080%=      5-min Rain = 0
KHA1 151115Z 16002KT 25/20 A3004 RMK A01 T02450199  RH  080%=      5-min Rain = 0
KHA1 151120Z 15002KT 25/20 A3004 RMK A01 T02450200  RH  080%=      5-min Rain = 0
KHA1 151125Z 15002KT 25/20 A3004 RMK A01 T02450199  RH  080%=      5-min Rain = 0
KHA1 151130Z 15002KT 24/20 A3004 RMK A01 T02440199  RH  081%=      5-min Rain = 0
KHA1 151135Z 15000KT 24/20 A3004 RMK A01 T02440199  RH  081%=      5-min Rain = 0
KHA1 151140Z 00000KT 24/20 A3004 RMK A01 T02430199  RH  081%=      5-min Rain = 0
KHA1 151145Z 00000KT 24/20 A3005 RMK A01 T02420198  RH  081%=      5-min Rain = 0
KHA1 151150Z 00000KT 24/20 A3005 RMK A01 T02360195  RH  082%=      5-min Rain = 0
KHA1 151155Z 00000KT 23/19 A3005 RMK A01 T02260192  RH  086%=      5-min Rain = 0
KHA1 151200Z 00000KT 22/19 A3005 RMK A01 T02220193  RH  088%=      5-min Rain = 0
KHA1 151205Z 00000KT 22/20 A3005 RMK A01 T02220195  RH  090%=      5-min Rain = 0
KHA1 151210Z 00000KT 22/19 A3005 RMK A01 T02210194  RH  090%=      5-min Rain = 0
KHA1 151215Z 00000KT 22/19 A3005 RMK A01 T02200194  RH  090%=      5-min Rain = 0
KHA1 151220Z 00000KT 22/20 A3006 RMK A01 T02210196  RH  091%=      5-min Rain = 0
KHA1 151225Z 00000KT 22/20 A3006 RMK A01 T02230196  RH  089%=      5-min Rain = 0
KHA1 151230Z 06000KT 23/19 A3006 RMK A01 T02270192  RH  085%=      5-min Rain = 0
KHA1 151235Z 05000KT 23/19 A3006 RMK A01 T02300194  RH  085%=      5-min Rain = 0
KHA1 151240Z 00000KT 23/20 A3006 RMK A01 T02330199  RH  086%=      5-min Rain = 0
KHA1 151245Z 00000KT 24/20 A3006 RMK A01 T02380198  RH  083%=      5-min Rain = 0
KHA1 151250Z 00000KT 25/20 A3006 RMK A01 T02460198  RH  079%=      5-min Rain = 0
KHA1 151255Z 00000KT 25/20 A3006 RMK A01 T02500200  RH  078%=      5-min Rain = 0
KHA1 151300Z 00000KT 25/20 A3007 RMK A01 T02530203  RH  078%=      5-min Rain = 0
KHA1 151305Z 00000KT 25/21 A3007 RMK A01 T02510205  RH  080%=      5-min Rain = 0
KHA1 151310Z 00000KT 26/21 A3007 RMK A01 T02550205  RH  079%=      5-min Rain = 0
KHA1 151315Z 00000KT 27/21 A3008 RMK A01 T02650206  RH  074%=      5-min Rain = 0
KHA1 151320Z 00000KT 27/20 A3008 RMK A01 T02690202  RH  071%=      5-min Rain = 0
KHA1 151325Z 00000KT 27/20 A3008 RMK A01 T02700201  RH  070%=      5-min Rain = 0
KHA1 151330Z 00000KT 27/20 A3008 RMK A01 T02740201  RH  068%=      5-min Rain = 0
KHA1 151335Z 00000KT 28/20 A3008 RMK A01 T02770202  RH  068%=      5-min Rain = 0
KHA1 151340Z 00000KT 28/21 A3008 RMK A01 T02780210  RH  071%=      5-min Rain = 0
KHA1 151345Z 00000KT 28/21 A3008 RMK A01 T02760212  RH  073%=      5-min Rain = 0
KHA1 151350Z 00000KT 28/20 A3008 RMK A01 T02800199  RH  065%=      5-min Rain = 0
KHA1 151355Z 00000KT 29/20 A3008 RMK A01 T02850197  RH  063%=      5-min Rain = 0
KHA1 151400Z 00000KT 29/20 A3008 RMK A01 T02870198  RH  062%=      5-min Rain = 0
KHA1 151405Z 00000KT 29/20 A3008 RMK A01 T02870198  RH  062%=      5-min Rain = 0
KHA1 151410Z 00000KT 29/20 A3008 RMK A01 T02870197  RH  062%=      5-min Rain = 0
KHA1 151415Z 00000KT 29/20 A3008 RMK A01 T02900198  RH  061%=      5-min Rain = 0
KHA1 151420Z 00000KT 30/20 A3008 RMK A01 T02970200  RH  059%=      5-min Rain = 0
KHA1 151425Z 00000KT 30/20 A3008 RMK A01 T02960200  RH  060%=      5-min Rain = 0
KHA1 151430Z 00000KT 29/20 A3008 RMK A01 T02930198  RH  060%=      5-min Rain = 0
KHA1 151435Z 13000KT 30/20 A3008 RMK A01 T03010201  RH  058%=      5-min Rain = 0
KHA1 151440Z 12002KT 29/20 A3008 RMK A01 T02940200  RH  060%=      5-min Rain = 0
KHA1 151445Z 12003KT 30/20 A3008 RMK A01 T02960200  RH  060%=      5-min Rain = 0
KHA1 151450Z 13004KT 30/20 A3008 RMK A01 T02950199  RH  059%=      5-min Rain = 0
KHA1 151455Z 18004KT 30/20 A3008 RMK A01 T02990195  RH  057%=      5-min Rain = 0
KHA1 151500Z 18004KT 30/20 A3007 RMK A01 T03000195  RH  057%=      5-min Rain = 0
KHA1 151505Z 15003KT 30/20 A3007 RMK A01 T02960199  RH  059%=      5-min Rain = 0
KHA1 151510Z 16003KT 30/20 A3008 RMK A01 T02970199  RH  059%=      5-min Rain = 0
KHA1 151515Z 13004KT 30/20 A3008 RMK A01 T02980195  RH  057%=      5-min Rain = 0
KHA1 151520Z 13003KT 30/20 A3008 RMK A01 T03010195  RH  056%=      5-min Rain = 0
KHA1 151525Z 14003KT 30/19 A3008 RMK A01 T03010194  RH  056%=      5-min Rain = 0
KHA1 151530Z 16004KT 30/20 A3008 RMK A01 T03020198  RH  057%=      5-min Rain = 0
KHA1 151535Z 16006KT 30/20 A3007 RMK A01 T03030197  RH  056%=      5-min Rain = 0
KHA1 151540Z 16006KT 30/20 A3007 RMK A01 T03020196  RH  056%=      5-min Rain = 0
KHA1 151545Z 16006KT 31/20 A3007 RMK A01 T03060197  RH  055%=      5-min Rain = 0
KHA1 151550Z 15006KT 31/20 A3007 RMK A01 T03060196  RH  055%=      5-min Rain = 0
KHA1 151555Z 14004KT 30/20 A3007 RMK A01 T03040199  RH  056%=      5-min Rain = 0
KHA1 151600Z 13003G8KT 31/20 A3008 RMK A01 T03060199  RH  056%=      5-min Rain = 0
KHA1 151605Z 07003KT 31/20 A3008 RMK A01 T03120201  RH  055%=      5-min Rain = 0
KHA1 151610Z 06002KT 31/20 A3009 RMK A01 T03120198  RH  054%=      5-min Rain = 0
KHA1 151615Z 01000KT 32/20 A3009 RMK A01 T03160197  RH  052%=      5-min Rain = 0
KHA1 151620Z 36001KT 32/20 A3009 RMK A01 T03240203  RH  052%=      5-min Rain = 0
KHA1 151625Z 33001KT 33/20 A3009 RMK A01 T03260200  RH  050%=      5-min Rain = 0
KHA1 151630Z 31000KT 33/20 A3009 RMK A01 T03270202  RH  050%=      5-min Rain = 0
KHA1 151635Z 29002KT 33/20 A3008 RMK A01 T03290197  RH  049%=      5-min Rain = 0
KHA1 151640Z 30003KT 32/20 A3008 RMK A01 T03240204  RH  052%=      5-min Rain = 0
KHA1 151645Z 31004KT 32/20 A3008 RMK A01 T03210201  RH  052%=      5-min Rain = 0
KHA1 151650Z 31002G7KT 32/20 A3008 RMK A01 T03160197  RH  052%=      5-min Rain = 0
KHA1 151655Z 31002KT 33/20 A3007 RMK A01 T03270204  RH  051%=      5-min Rain = 0
KHA1 151700Z 34004KT 33/21 A3007 RMK A01 T03260206  RH  052%=      5-min Rain = 0
KHA1 151705Z 32001KT 33/20 A3007 RMK A01 T03290199  RH  049%=      5-min Rain = 0
KHA1 151710Z 30001KT 33/20 A3007 RMK A01 T03320200  RH  049%=      5-min Rain = 0
KHA1 151715Z 13004KT 33/20 A3006 RMK A01 T03250198  RH  050%=      5-min Rain = 0
KHA1 151720Z 10004KT 33/20 A3005 RMK A01 T03250196  RH  049%=      5-min Rain = 0
KHA1 151725Z 14005G10KT 33/20 A3004 RMK A01 T03280196  RH  049%=      5-min Rain = 0
KHA1 151730Z 14004G12KT 32/20 A3004 RMK A01 T03240196  RH  050%=      5-min Rain = 0
KHA1 151735Z 16007KT 33/20 A3004 RMK A01 T03290197  RH  049%=      5-min Rain = 0
KHA1 151740Z 14006G11KT 33/19 A3004 RMK A01 T03290191  RH  047%=      5-min Rain = 0
KHA1 151745Z 15004KT 33/19 A3004 RMK A01 T03290189  RH  046%=      5-min Rain = 0
KHA1 151750Z 16004G9KT 33/19 A3003 RMK A01 T03330190  RH  045%=      5-min Rain = 0
KHA1 151755Z 12006KT 33/19 A3003 RMK A01 T03320189  RH  045%=      5-min Rain = 0
KHA1 151800Z 10003KT 33/19 A3002 RMK A01 T03280189  RH  046%=      5-min Rain = 0
KHA1 151805Z 15005G10KT 33/19 A3002 RMK A01 T03320192  RH  046%=      5-min Rain = 0
KHA1 151810Z 18008KT 34/19 A3001 RMK A01 T03360190  RH  044%=      5-min Rain = 0
KHA1 151815Z 17012KT 34/19 A30 RMK A01 T03420188  RH  043%=      5-min Rain = 0
KHA1 151820Z 17008G13KT 34/19 A30 RMK A01 T03380185  RH  043%=      5-min Rain = 0
KHA1 151825Z 18003G9KT 34/18 A3001 RMK A01 T03440182  RH  041%=      5-min Rain = 0
KHA1 151830Z 12005G12KT 34/19 A3001 RMK A01 T03440185  RH  041%=      5-min Rain = 0
KHA1 151835Z 11007KT 34/19 A3001 RMK A01 T03430186  RH  042%=      5-min Rain = 0
KHA1 151840Z 12008G13KT 34/18 A3001 RMK A01 T03400182  RH  041%=      5-min Rain = 0
KHA1 151845Z 12009KT 34/18 A3001 RMK A01 T03420179  RH  040%=      5-min Rain = 0
KHA1 151850Z 12007KT 34/18 A3001 RMK A01 T03410175  RH  039%=      5-min Rain = 0
KHA1 151855Z 19002KT 35/17 A3001 RMK A01 T03460169  RH  037%=      5-min Rain = 0
KHA1 151900Z 16005G10KT 35/18 A3001 RMK A01 T03480175  RH  038%=      5-min Rain = 0
KHA1 151905Z 16003KT 35/17 A30 RMK A01 T03470171  RH  037%=      5-min Rain = 0
KHA1 151910Z 11006KT 35/17 A30 RMK A01 T03450173  RH  038%=      5-min Rain = 0
KHA1 151915Z 12004KT 34/17 A30 RMK A01 T03430174  RH  039%=      5-min Rain = 0
KHA1 151920Z 11002KT 35/17 A30 RMK A01 T03450169  RH  037%=      5-min Rain = 0
KHA1 151925Z 23001KT 35/17 A2999 RMK A01 T03540166  RH  034%=      5-min Rain = 0
KHA1 151930Z 07004G10KT 36/19 A2999 RMK A01 T03570186  RH  039%=      5-min Rain = 0
KHA1 151935Z 14006KT 35/17 A2999 RMK A01 T03530172  RH  036%=      5-min Rain = 0
KHA1 151940Z 18003G8KT 35/16 A2999 RMK A01 T03540164  RH  034%=      5-min Rain = 0
KHA1 151945Z 21002KT 36/17 A2999 RMK A01 T03560168  RH  035%=      5-min Rain = 0
KHA1 151950Z 07003KT 35/17 A2999 RMK A01 T03520173  RH  037%=      5-min Rain = 0
KHA1 151955Z 10003KT 35/17 A2999 RMK A01 T03520167  RH  035%=      5-min Rain = 0
KHA1 152000Z 31001KT 36/17 A2998 RMK A01 T03590165  RH  033%=      5-min Rain = 0
KHA1 152005Z 31003KT 36/19 A2997 RMK A01 T03610186  RH  038%=      5-min Rain = 0
KHA1 152010Z 36001KT 36/19 A2997 RMK A01 T03590194  RH  040%=      5-min Rain = 0
KHA1 152015Z 12004KT 36/18 A2997 RMK A01 T03580177  RH  036%=      5-min Rain = 0
KHA1 152020Z 11007KT 36/17 A2996 RMK A01 T03570168  RH  034%=      5-min Rain = 0
KHA1 152025Z 14005KT 35/17 A2996 RMK A01 T03530174  RH  037%=      5-min Rain = 0
KHA1 152030Z 12004G9KT 35/18 A2996 RMK A01 T03530175  RH  037%=      5-min Rain = 0
KHA1 152035Z 17006G11KT 36/17 A2996 RMK A01 T03560170  RH  035%=      5-min Rain = 0
KHA1 152040Z 22005KT 36/16 A2996 RMK A01 T03620162  RH  032%=      5-min Rain = 0
KHA1 152045Z 24001KT 37/16 A2995 RMK A01 T03660156  RH  030%=      5-min Rain = 0
KHA1 152050Z 18003KT 37/16 A2995 RMK A01 T03720164  RH  031%=      5-min Rain = 0
KHA1 152055Z 16007KT 36/17 A2995 RMK A01 T03630169  RH  033%=      5-min Rain = 0
KHA1 152100Z 16003G9KT 35/17 A2995 RMK A01 T03540166  RH  034%=      5-min Rain = 0
KHA1 152105Z 17004KT 36/16 A2995 RMK A01 T03640164  RH  032%=      5-min Rain = 0
KHA1 152110Z 21004G9KT 37/16 A2994 RMK A01 T03650160  RH  031%=      5-min Rain = 0
KHA1 152115Z 15006G13KT 36/17 A2994 RMK A01 T03640165  RH  032%=      5-min Rain = 0
KHA1 152120Z 16005G10KT 36/16 A2994 RMK A01 T03570163  RH  033%=      5-min Rain = 0
KHA1 152125Z 20006KT 37/16 A2994 RMK A01 T03660159  RH  031%=      5-min Rain = 0
KHA1 152130Z 19006KT 37/17 A2994 RMK A01 T03690166  RH  032%=      5-min Rain = 0
KHA1 152135Z 10005KT 37/17 A2994 RMK A01 T03670167  RH  032%=      5-min Rain = 0
KHA1 152140Z 17004G9KT 37/17 A2994 RMK A01 T03650172  RH  034%=      5-min Rain = 0
KHA1 152145Z 14006KT 36/17 A2994 RMK A01 T03600172  RH  035%=      5-min Rain = 0
KHA1 152150Z 17004G10KT 35/16 A2994 RMK A01 T03510164  RH  035%=      5-min Rain = 0
KHA1 152155Z 13004KT 36/17 A2994 RMK A01 T03600166  RH  033%=      5-min Rain = 0
KHA1 152200Z 13007KT 36/17 A2994 RMK A01 T03620170  RH  034%=      5-min Rain = 0
KHA1 152205Z 16006KT 36/17 A2993 RMK A01 T03590172  RH  035%=      5-min Rain = 0
KHA1 152210Z 16005KT 36/17 A2993 RMK A01 T03620167  RH  033%=      5-min Rain = 0
KHA1 152215Z 13007G12KT 36/17 A2993 RMK A01 T03600165  RH  033%=      5-min Rain = 0
KHA1 152220Z 13007KT 36/17 A2993 RMK A01 T03590166  RH  033%=      5-min Rain = 0
KHA1 152225Z 14005KT 36/17 A2993 RMK A01 T03570167  RH  034%=      5-min Rain = 0
KHA1 152230Z 15002KT 36/16 A2993 RMK A01 T03630163  RH  032%=      5-min Rain = 0
KHA1 152235Z 16006G11KT 37/16 A2993 RMK A01 T03670163  RH  031%=      5-min Rain = 0
KHA1 152240Z 13007KT 36/16 A2993 RMK A01 T03640160  RH  031%=      5-min Rain = 0
KHA1 152245Z 14004KT 36/16 A2993 RMK A01 T03620162  RH  032%=      5-min Rain = 0
KHA1 152250Z 15007G12KT 36/16 A2993 RMK A01 T03610159  RH  032%=      5-min Rain = 0
KHA1 152255Z 14006KT 36/16 A2993 RMK A01 T03580161  RH  033%=      5-min Rain = 0
KHA1 152300Z 13007G13KT 36/16 A2992 RMK A01 T03630159  RH  031%=      5-min Rain = 0
KHA1 152305Z 11008G14KT 37/16 A2992 RMK A01 T03650155  RH  030%=      5-min Rain = 0
KHA1 152310Z 15007KT 36/16 A2992 RMK A01 T03640160  RH  031%=      5-min Rain = 0
KHA1 152315Z 14007KT 36/16 A2991 RMK A01 T03600159  RH  032%=      5-min Rain = 0
KHA1 152320Z 12008KT 36/15 A2991 RMK A01 T03610154  RH  031%=      5-min Rain = 0
KHA1 152325Z 13007KT 36/16 A2991 RMK A01 T03640155  RH  030%=      5-min Rain = 0
KHA1 152330Z 15007G12KT 36/16 A2991 RMK A01 T03570158  RH  032%=      5-min Rain = 0
KHA1 152335Z 16007KT 36/15 A2991 RMK A01 T03550154  RH  032%=      5-min Rain = 0
KHA1 152340Z 14009G14KT 36/15 A2991 RMK A01 T03550153  RH  031%=      5-min Rain = 0
KHA1 152345Z 13007KT 36/15 A2991 RMK A01 T03550152  RH  031%=      5-min Rain = 0
KHA1 152350Z 13007KT 36/15 A2991 RMK A01 T03550154  RH  032%=      5-min Rain = 0
KHA1 152355Z 13008KT 35/15 A2991 RMK A01 T03530153  RH  032%=      5-min Rain = 0
KHA1 160000Z 13008KT 35/15 A2991 RMK A01 T03530152  RH  031%=      5-min Rain = 0
KHA1 160005Z 14007KT 35/15 A2991 RMK A01 T03520154  RH  032%=      5-min Rain = 0
KHA1 160010Z 14007KT 35/16 A2991 RMK A01 T03510156  RH  033%=      5-min Rain = 0
KHA1 160015Z 13009KT 35/15 A2991 RMK A01 T03510153  RH  032%=      5-min Rain = 0
KHA1 160020Z 13009KT 35/15 A2991 RMK A01 T03520153  RH  032%=      5-min Rain = 0
KHA1 160025Z 13007KT 35/16 A2991 RMK A01 T03530156  RH  032%=      5-min Rain = 0
KHA1 160030Z 14009KT 35/15 A299 RMK A01 T03530153  RH  032%=      5-min Rain = 0
KHA1 160035Z 14008G13KT 35/15 A299 RMK A01 T03510152  RH  032%=      5-min Rain = 0
KHA1 160040Z 14007G12KT 35/15 A299 RMK A01 T03490154  RH  033%=      5-min Rain = 0
KHA1 160045Z 13009KT 35/15 A299 RMK A01 T03470151  RH  032%=      5-min Rain = 0
KHA1 160050Z 13008KT 35/15 A299 RMK A01 T03460151  RH  033%=      5-min Rain = 0
KHA1 160055Z 13009KT 35/15 A2991 RMK A01 T03450150  RH  032%=      5-min Rain = 0
KHA1 160100Z 13008KT 34/15 A2991 RMK A01 T03440152  RH  033%=      5-min Rain = 0
KHA1 160105Z 13008KT 34/15 A2991 RMK A01 T03440151  RH  033%=      5-min Rain = 0
KHA1 160110Z 13008KT 34/15 A2991 RMK A01 T03420151  RH  033%=      5-min Rain = 0
KHA1 160115Z 13007KT 34/15 A2991 RMK A01 T03400152  RH  034%=      5-min Rain = 0
KHA1 160120Z 13007KT 34/15 A2991 RMK A01 T03360153  RH  035%=      5-min Rain = 0
KHA1 160125Z 13006KT 34/15 A2991 RMK A01 T03350154  RH  035%=      5-min Rain = 0
KHA1 160130Z 13007KT 33/15 A2991 RMK A01 T03340153  RH  035%=      5-min Rain = 0
KHA1 160135Z 13006KT 33/16 A2991 RMK A01 T03320155  RH  036%=      5-min Rain = 0
KHA1 160140Z 13006KT 33/16 A2991 RMK A01 T03300155  RH  037%=      5-min Rain = 0
KHA1 160145Z 13006KT 33/16 A2991 RMK A01 T03280155  RH  037%=      5-min Rain = 0
KHA1 160150Z 13006KT 33/16 A2991 RMK A01 T03260156  RH  038%=      5-min Rain = 0
KHA1 160155Z 13006KT 32/16 A2991 RMK A01 T03240156  RH  038%=      5-min Rain = 0
KHA1 160200Z 13006KT 32/16 A2991 RMK A01 T03240156  RH  038%=      5-min Rain = 0
KHA1 160205Z 13005KT 32/16 A2992 RMK A01 T03220158  RH  039%=      5-min Rain = 0
KHA1 160210Z 13005KT 32/16 A2992 RMK A01 T03210158  RH  039%=      5-min Rain = 0
KHA1 160215Z 13005KT 32/16 A2992 RMK A01 T03200158  RH  040%=      5-min Rain = 0
KHA1 160220Z 13006KT 32/16 A2992 RMK A01 T03190159  RH  040%=      5-min Rain = 0
KHA1 160225Z 13006KT 32/16 A2992 RMK A01 T03180159  RH  040%=      5-min Rain = 0
KHA1 160230Z 13007KT 32/16 A2992 RMK A01 T03170160  RH  041%=      5-min Rain = 0
KHA1 160235Z 13007KT 32/16 A2992 RMK A01 T03180160  RH  041%=      5-min Rain = 0
KHA1 160240Z 13007KT 32/16 A2992 RMK A01 T03160162  RH  041%=      5-min Rain = 0
KHA1 160245Z 13008KT 32/16 A2993 RMK A01 T03150161  RH  041%=      5-min Rain = 0
KHA1 160250Z 13008KT 31/16 A2993 RMK A01 T03140164  RH  042%=      5-min Rain = 0
KHA1 160255Z 13007KT 31/16 A2993 RMK A01 T03140164  RH  043%=      5-min Rain = 0
KHA1 160300Z 13007KT 31/17 A2993 RMK A01 T03140165  RH  043%=      5-min Rain = 0
KHA1 160305Z 14007KT 31/17 A2994 RMK A01 T03120167  RH  044%=      5-min Rain = 0
KHA1 160310Z 14008KT 31/17 A2994 RMK A01 T03120167  RH  044%=      5-min Rain = 0
KHA1 160315Z 14006KT 31/17 A2994 RMK A01 T03110168  RH  045%=      5-min Rain = 0
KHA1 160320Z 13006KT 31/17 A2995 RMK A01 T03090169  RH  045%=      5-min Rain = 0
KHA1 160325Z 14006KT 31/17 A2995 RMK A01 T03090169  RH  045%=      5-min Rain = 0
KHA1 160330Z 14006KT 31/17 A2995 RMK A01 T03070170  RH  046%=      5-min Rain = 0
KHA1 160335Z 14007KT 31/17 A2995 RMK A01 T03060170  RH  046%=      5-min Rain = 0
KHA1 160340Z 15007KT 31/17 A2995 RMK A01 T03060170  RH  046%=      5-min Rain = 0
KHA1 160345Z 15006KT 30/17 A2995 RMK A01 T03040170  RH  047%=      5-min Rain = 0
KHA1 160350Z 14006KT 30/17 A2995 RMK A01 T03020170  RH  047%=      5-min Rain = 0
KHA1 160355Z 15006KT 30/17 A2995 RMK A01 T03000169  RH  048%=      5-min Rain = 0
KHA1 160400Z 15005KT 30/17 A2995 RMK A01 T02990170  RH  048%=      5-min Rain = 0
KHA1 160405Z 14006KT 30/17 A2995 RMK A01 T02980169  RH  048%=      5-min Rain = 0
KHA1 160410Z 14005KT 30/17 A2995 RMK A01 T02990169  RH  048%=      5-min Rain = 0
KHA1 160415Z 15004KT 30/17 A2996 RMK A01 T02950171  RH  050%=      5-min Rain = 0
KHA1 160420Z 14005KT 30/17 A2996 RMK A01 T02950170  RH  049%=      5-min Rain = 0
KHA1 160425Z 14005KT 29/17 A2996 RMK A01 T02920170  RH  050%=      5-min Rain = 0
KHA1 160430Z 14005KT 29/17 A2996 RMK A01 T02940169  RH  049%=      5-min Rain = 0
KHA1 160435Z 13005KT 29/17 A2996 RMK A01 T02920170  RH  050%=      5-min Rain = 0
KHA1 160440Z 14005KT 29/17 A2996 RMK A01 T02900170  RH  051%=      5-min Rain = 0
KHA1 160445Z 14005KT 29/17 A2996 RMK A01 T02900170  RH  051%=      5-min Rain = 0
KHA1 160450Z 14005KT 29/17 A2996 RMK A01 T02890171  RH  051%=      5-min Rain = 0
KHA1 160455Z 14006KT 29/17 A2996 RMK A01 T02890170  RH  051%=      5-min Rain = 0

Page generated in 0.0089 seconds.